createdAt,value
2023-03-29T00:00:42.178Z,2.60
2023-03-29T00:04:43.930Z,2.70
2023-03-29T00:08:45.450Z,2.70
2023-03-29T00:12:48.934Z,3.33
2023-03-29T00:16:52.429Z,3.30
2023-03-29T00:20:55.266Z,4.30
2023-03-29T00:24:56.934Z,3.63
2023-03-29T00:28:59.723Z,3.77
2023-03-29T00:33:01.232Z,3.73
2023-03-29T00:37:03.210Z,3.07
2023-03-29T00:41:06.358Z,2.97
2023-03-29T00:45:17.573Z,3.20
2023-03-29T00:49:19.283Z,3.23
2023-03-29T00:53:26.831Z,5.47
2023-03-29T00:57:30.984Z,5.20
2023-03-29T01:01:39.846Z,4.40
2023-03-29T01:05:44.396Z,3.20
2023-03-29T01:09:50.705Z,2.20
2023-03-29T01:13:56.169Z,2.30
2023-03-29T01:17:59.239Z,2.20
2023-03-29T01:22:09.630Z,2.10
2023-03-29T01:26:22.491Z,1.90
2023-03-29T01:30:30.171Z,2.80
2023-03-29T01:34:38.497Z,3.27
2023-03-29T01:38:45.053Z,2.77
2023-03-29T01:42:53.975Z,2.57
2023-03-29T01:47:08.179Z,2.30
2023-03-29T01:51:16.295Z,2.60
2023-03-29T01:55:22.989Z,2.40
2023-03-29T01:59:28.614Z,2.33
2023-03-29T02:03:33.621Z,2.40
2023-03-29T02:07:37.514Z,2.20
2023-03-29T02:11:41.802Z,2.00
2023-03-29T02:15:44.461Z,2.27
2023-03-29T02:19:50.633Z,1.83
2023-03-29T02:23:57.252Z,2.30
2023-03-29T02:27:59.548Z,2.07
2023-03-29T02:32:08.493Z,1.97
2023-03-29T02:36:16.516Z,2.00
2023-03-29T02:40:19.225Z,1.97
2023-03-29T02:44:24.816Z,1.80
2023-03-29T02:48:28.213Z,1.73
2023-03-29T02:52:35.541Z,2.30
2023-03-29T02:56:48.434Z,2.07
2023-03-29T03:00:50.196Z,2.40
2023-03-29T03:04:51.851Z,1.87
2023-03-29T03:08:54.939Z,1.70
2023-03-29T03:12:56.750Z,1.97
2023-03-29T03:16:58.477Z,1.80
2023-03-29T03:21:00.635Z,1.87
2023-03-29T03:25:09.189Z,2.20
2023-03-29T03:29:10.650Z,2.17
2023-03-29T03:33:14.876Z,1.90
2023-03-29T03:37:16.359Z,2.10
2023-03-29T03:41:19.564Z,2.13
2023-03-29T03:45:21.456Z,2.27
2023-03-29T03:49:23.080Z,3.13
2023-03-29T03:53:27.006Z,3.40
2023-03-29T03:57:29.886Z,3.10
2023-03-29T04:01:31.560Z,2.83
2023-03-29T04:05:33.013Z,2.83
2023-03-29T04:09:34.900Z,2.73
2023-03-29T04:13:37.988Z,2.57
2023-03-29T04:17:39.790Z,2.87
2023-03-29T04:21:41.764Z,2.87
2023-03-29T04:25:43.502Z,2.53
2023-03-29T04:29:46.802Z,2.60
2023-03-29T04:33:48.541Z,2.60
2023-03-29T04:37:49.991Z,2.13
2023-03-29T04:41:51.512Z,2.43
2023-03-29T04:45:58.758Z,2.60
2023-03-29T04:50:00.233Z,2.30
2023-03-29T04:54:03.130Z,2.03
2023-03-29T04:58:05.461Z,3.37
2023-03-29T05:02:09.832Z,2.50
2023-03-29T05:06:11.522Z,2.40
2023-03-29T05:10:13.003Z,2.17
2023-03-29T05:14:14.760Z,2.87
2023-03-29T05:18:17.756Z,2.30
2023-03-29T05:22:19.234Z,2.47
2023-03-29T05:26:21.923Z,2.70
2023-03-29T05:30:23.365Z,2.70
2023-03-29T05:34:29.909Z,3.20
2023-03-29T05:38:31.640Z,2.63
2023-03-29T05:42:33.565Z,2.80
2023-03-29T05:46:35.026Z,2.93
2023-03-29T05:50:37.952Z,3.20
2023-03-29T05:54:39.428Z,3.20
2023-03-29T05:58:40.913Z,3.60
2023-03-29T06:02:42.454Z,2.90
2023-03-29T06:06:45.759Z,2.90
2023-03-29T06:10:49.789Z,2.80
2023-03-29T06:14:51.272Z,5.37
2023-03-29T06:18:52.673Z,3.37
2023-03-29T06:22:55.816Z,2.43
2023-03-29T06:26:57.723Z,2.60
2023-03-29T06:30:59.370Z,2.40
2023-03-29T06:35:01.057Z,2.97
2023-03-29T06:39:04.874Z,2.33
2023-03-29T06:43:06.620Z,2.67
2023-03-29T06:47:08.327Z,2.67
2023-03-29T06:51:09.946Z,2.70
2023-03-29T06:55:13.471Z,2.30
2023-03-29T06:59:15.131Z,2.57
2023-03-29T07:03:17.323Z,2.67
2023-03-29T07:07:18.795Z,2.67
2023-03-29T07:11:24.198Z,2.50
2023-03-29T07:15:25.687Z,2.90
2023-03-29T07:19:27.378Z,2.50
2023-03-29T07:23:31.048Z,2.60
2023-03-29T07:27:34.113Z,2.67
2023-03-29T07:31:36.440Z,2.67
2023-03-29T07:35:38.154Z,2.50
2023-03-29T07:39:39.719Z,2.70
2023-03-29T07:43:43.229Z,2.67
2023-03-29T07:47:46.092Z,2.73
2023-03-29T07:51:47.774Z,2.50
2023-03-29T07:55:49.257Z,2.93
2023-03-29T07:59:52.162Z,2.60
2023-03-29T08:03:53.955Z,2.20
2023-03-29T08:07:55.501Z,2.80
2023-03-29T08:11:57.006Z,2.07
2023-03-29T08:16:01.191Z,2.47
2023-03-29T08:20:02.719Z,2.40
2023-03-29T08:24:04.927Z,2.30
2023-03-29T08:28:06.421Z,2.43
2023-03-29T08:32:09.427Z,2.20
2023-03-29T08:36:11.345Z,2.57
2023-03-29T08:40:19.343Z,2.70
2023-03-29T08:44:38.808Z,2.07
2023-03-29T08:48:45.693Z,2.17
2023-03-29T08:52:53.155Z,2.10
2023-03-29T08:57:01.480Z,1.80
2023-03-29T09:01:05.863Z,2.07
2023-03-29T09:05:18.527Z,2.33
2023-03-29T09:09:22.272Z,2.30
2023-03-29T09:13:34.763Z,2.40
2023-03-29T09:17:50.569Z,2.10
2023-03-29T09:22:00.402Z,1.97
2023-03-29T09:26:11.261Z,2.27
2023-03-29T09:30:17.269Z,2.37
2023-03-29T09:34:22.598Z,2.13
2023-03-29T09:38:25.424Z,2.10
2023-03-29T09:42:31.031Z,1.90
2023-03-29T09:46:39.455Z,2.10
2023-03-29T09:50:42.785Z,2.23
2023-03-29T09:54:46.155Z,2.20
2023-03-29T09:58:47.618Z,2.30
2023-03-29T10:02:53.117Z,2.30
2023-03-29T10:06:54.922Z,2.50
2023-03-29T10:10:59.220Z,2.27
2023-03-29T10:15:03.655Z,2.40
2023-03-29T10:19:18.603Z,2.40
2023-03-29T10:23:20.057Z,2.20
2023-03-29T10:27:26.502Z,1.90
2023-03-29T10:31:30.615Z,2.07
2023-03-29T10:35:38.465Z,2.30
2023-03-29T10:39:41.568Z,1.97
2023-03-29T10:43:46.503Z,2.27
2023-03-29T10:47:48.713Z,2.27
2023-03-29T10:51:53.573Z,2.20
2023-03-29T10:56:06.169Z,2.10
2023-03-29T11:00:17.173Z,2.17
2023-03-29T11:04:25.364Z,2.03
2023-03-29T11:08:39.850Z,1.93
2023-03-29T11:12:49.638Z,2.37
2023-03-29T11:17:01.800Z,1.97
2023-03-29T11:21:12.295Z,2.40
2023-03-29T11:25:40.483Z,1.80
2023-03-29T11:29:55.644Z,1.80
2023-03-29T11:38:27.551Z,1.73
2023-03-29T11:42:33.650Z,1.83
2023-03-29T11:46:38.625Z,1.90
2023-03-29T11:50:47.922Z,1.93
2023-03-29T11:54:53.714Z,1.70
2023-03-29T11:59:01.115Z,1.60
2023-03-29T12:03:11.855Z,1.47
2023-03-29T12:07:19.929Z,1.80
2023-03-29T12:11:29.935Z,1.37
2023-03-29T12:15:36.430Z,1.40
2023-03-29T12:19:46.511Z,1.60
2023-03-29T12:23:51.329Z,1.50
2023-03-29T12:28:07.558Z,1.50
2023-03-29T12:32:26.945Z,1.47
2023-03-29T12:36:52.565Z,1.50
2023-03-29T12:40:57.822Z,1.60
2023-03-29T12:45:00.773Z,1.37
2023-03-29T12:49:11.083Z,1.50
2023-03-29T12:53:19.280Z,1.30
2023-03-29T12:57:27.839Z,1.60
2023-03-29T13:01:31.570Z,1.37
2023-03-29T13:05:35.628Z,1.27
2023-03-29T13:09:48.622Z,1.40
2023-03-29T13:13:54.489Z,1.30
2023-03-29T13:18:09.640Z,1.20
2023-03-29T13:22:25.284Z,1.40
2023-03-29T13:26:49.049Z,1.33
2023-03-29T13:30:58.800Z,1.50
2023-03-29T13:35:13.574Z,1.20
2023-03-29T13:39:20.952Z,1.40
2023-03-29T13:43:31.302Z,1.30
2023-03-29T13:47:48.993Z,1.70
2023-03-29T13:52:25.220Z,1.37
2023-03-29T13:56:32.158Z,1.50
2023-03-29T14:00:39.689Z,1.40
2023-03-29T14:04:46.375Z,1.53
2023-03-29T14:08:49.259Z,1.27
2023-03-29T14:12:51.179Z,1.83
2023-03-29T14:16:55.308Z,1.87
2023-03-29T14:21:00.280Z,1.70
2023-03-29T14:25:06.667Z,1.60
2023-03-29T14:29:12.447Z,1.50
2023-03-29T14:33:23.536Z,1.63
2023-03-29T14:37:32.538Z,1.50
2023-03-29T14:41:35.977Z,1.60
2023-03-29T14:45:39.023Z,1.80
2023-03-29T14:49:40.633Z,1.43
2023-03-29T14:53:47.367Z,1.60
2023-03-29T14:57:50.196Z,1.47
2023-03-29T15:01:51.611Z,1.33
2023-03-29T15:05:57.224Z,1.43
2023-03-29T15:10:05.370Z,1.67
2023-03-29T15:14:09.367Z,1.67
2023-03-29T15:18:15.508Z,1.43
2023-03-29T15:22:17.056Z,2.20
2023-03-29T15:26:24.198Z,1.77
2023-03-29T15:30:34.502Z,1.50
2023-03-29T15:34:37.707Z,1.50
2023-03-29T15:38:44.500Z,1.30
2023-03-29T15:46:54.628Z,1.23
2023-03-29T15:50:57.224Z,1.30
2023-03-29T15:55:00.720Z,1.30
2023-03-29T15:59:03.933Z,1.20
2023-03-29T16:03:05.462Z,1.70
2023-03-29T16:07:10.368Z,1.47
2023-03-29T16:11:13.136Z,1.40
2023-03-29T16:15:20.150Z,1.30
2023-03-29T16:19:22.613Z,1.20
2023-03-29T16:23:27.441Z,1.20
2023-03-29T16:27:29.144Z,1.30
2023-03-29T16:31:32.040Z,1.50
2023-03-29T16:35:35.320Z,1.23
2023-03-29T16:39:37.925Z,1.50
2023-03-29T16:43:40.745Z,1.40
2023-03-29T16:47:45.118Z,1.63
2023-03-29T16:51:46.930Z,1.57
2023-03-29T16:55:50.057Z,1.53
2023-03-29T16:59:51.806Z,1.37
2023-03-29T17:03:59.996Z,1.30
2023-03-29T17:08:02.388Z,1.40
2023-03-29T17:12:05.088Z,1.53
2023-03-29T17:16:08.165Z,1.70
2023-03-29T17:20:12.106Z,1.30
2023-03-29T17:24:13.877Z,1.73
2023-03-29T17:28:15.401Z,1.20
2023-03-29T17:32:16.881Z,1.40
2023-03-29T17:36:19.865Z,1.30
2023-03-29T17:40:21.730Z,1.30
2023-03-29T17:44:24.470Z,1.40
2023-03-29T17:48:25.879Z,1.40
2023-03-29T17:52:28.932Z,1.40
2023-03-29T17:56:30.889Z,1.30
2023-03-29T18:00:32.748Z,1.40
2023-03-29T18:04:34.314Z,1.30
2023-03-29T18:08:39.915Z,1.30
2023-03-29T18:12:41.411Z,1.47
2023-03-29T18:16:43.218Z,1.43
2023-03-29T18:20:44.777Z,1.50
2023-03-29T18:24:47.570Z,1.50
2023-03-29T18:28:49.253Z,1.43
2023-03-29T18:32:51.278Z,1.50
2023-03-29T18:36:54.027Z,1.77
2023-03-29T18:40:57.218Z,1.60
2023-03-29T18:44:58.945Z,1.80
2023-03-29T18:49:00.984Z,1.87
2023-03-29T18:53:02.601Z,1.83
2023-03-29T18:57:05.404Z,1.77
2023-03-29T19:01:09.733Z,1.77
2023-03-29T19:05:12.611Z,2.00
2023-03-29T19:09:14.333Z,2.10
2023-03-29T19:13:17.870Z,2.20
2023-03-29T19:17:19.375Z,2.10
2023-03-29T19:21:21.092Z,5.43
2023-03-29T19:25:22.814Z,2.07
2023-03-29T19:29:25.677Z,2.20
2023-03-29T19:33:27.525Z,2.07
2023-03-29T19:37:29.263Z,1.93
2023-03-29T19:41:30.849Z,2.30
2023-03-29T19:45:34.320Z,2.13
2023-03-29T19:49:35.699Z,2.20
2023-03-29T19:53:39.070Z,1.80
2023-03-29T19:57:40.740Z,2.13
2023-03-29T20:01:44.109Z,2.10
2023-03-29T20:05:47.180Z,2.10
2023-03-29T20:09:48.841Z,2.17
2023-03-29T20:13:54.615Z,2.07
2023-03-29T20:17:59.395Z,2.50
2023-03-29T20:22:01.422Z,2.30
2023-03-29T20:26:03.217Z,2.40
2023-03-29T20:30:06.919Z,2.30
2023-03-29T20:34:10.627Z,2.13
2023-03-29T20:38:12.839Z,2.10
2023-03-29T20:42:14.342Z,2.13
2023-03-29T20:46:16.055Z,2.20
2023-03-29T20:50:20.159Z,2.30
2023-03-29T20:54:21.907Z,2.20
2023-03-29T20:58:23.376Z,2.20
2023-03-29T21:02:27.361Z,1.87
2023-03-29T21:06:30.348Z,1.90
2023-03-29T21:10:31.823Z,2.33
2023-03-29T21:14:37.615Z,2.00
2023-03-29T21:18:40.251Z,1.90
2023-03-29T21:22:43.212Z,1.80
2023-03-29T21:26:44.713Z,1.80
2023-03-29T21:30:46.141Z,2.20
2023-03-29T21:34:47.997Z,1.87
2023-03-29T21:38:52.073Z,1.50
2023-03-29T21:42:55.379Z,1.90
2023-03-29T21:46:58.158Z,1.67
2023-03-29T21:50:59.888Z,1.80
2023-03-29T21:55:04.281Z,1.90
2023-03-29T21:59:08.877Z,1.73
2023-03-29T22:03:11.948Z,2.00
2023-03-29T22:07:13.685Z,1.80
2023-03-29T22:11:16.931Z,1.87
2023-03-29T22:15:20.400Z,1.80
2023-03-29T22:19:24.570Z,1.63
2023-03-29T22:23:26.540Z,1.70
2023-03-29T22:27:29.750Z,1.60
2023-03-29T22:31:33.676Z,1.77
2023-03-29T22:35:35.950Z,1.80
2023-03-29T22:39:38.842Z,1.50
2023-03-29T22:43:50.807Z,1.80
2023-03-29T22:47:52.769Z,1.93
2023-03-29T22:51:55.750Z,1.97
2023-03-29T22:55:58.702Z,1.90
2023-03-29T23:00:01.842Z,2.00
2023-03-29T23:04:03.603Z,1.70
2023-03-29T23:08:05.878Z,2.03
2023-03-29T23:12:07.840Z,1.70
2023-03-29T23:16:13.736Z,1.80
2023-03-29T23:20:15.299Z,2.03
2023-03-29T23:24:19.072Z,1.57
2023-03-29T23:28:24.190Z,2.03
2023-03-29T23:32:27.863Z,2.03
2023-03-29T23:36:29.830Z,1.60
2023-03-29T23:40:31.981Z,1.70
2023-03-29T23:44:36.044Z,1.70
2023-03-29T23:48:40.382Z,2.00
2023-03-29T23:52:42.114Z,2.10
2023-03-29T23:56:43.965Z,1.50
